Pahrump, Nevada Weather observations

Data are for observation ending at time listed.
 Day   Time    Ave.   Ave.  Ave.  Vector   Max.   Stn.    Total    Solar   Ave.  
  of    of     Air    Rel.  Wind   Wind    Wind   Baro.  Precip.   Rad.    Soil  
Year   Day     Temp.  Hum.  Speed  Dir.    Gust   Pres.                    Temp. 
2026   (PST)    F      %     mph   deg.    mph     mb.     in.     W/m2     F   
------------------------------------------------------------------------------
 122   14:50   86.2     8    5.9   195     13.2   920.5    0.00     722    84.2
 122   15:00   86.0     8    5.3   205     13.2   920.5    0.00     528    84.1
 122   15:10   84.3     8    0.3   222      5.8   920.4    0.00     465    84.1
 122   15:20   84.1     8    2.5   242      5.5   920.1    0.00     467    84.1
 122   15:30   85.2     8    3.5   181      8.6   920.0    0.00     433    84.2
 122   15:40   86.0     8    1.5   155      7.9   919.8    0.00     681    84.3
 122   15:50   84.9     8    6.2   132     10.5   919.9    0.00     499    84.3
 122   16:00   84.7     7    4.9   130     11.0   919.8    0.00     467    84.4
 122   16:10   85.9     7    4.3   168     13.0   919.7    0.00     470    84.5
 122   16:20   84.9     7    7.1   146     12.1   919.7    0.00     352    84.5
 122   16:30   84.3     7    4.3   171      9.5   919.6    0.00     353    84.6
 122   16:40   85.9     7    3.7   163      8.7   919.4    0.00     421    84.7
 122   16:50   85.2     7    6.2   150     10.7   919.4    0.00     391    84.7
 122   17:00   84.2     7    4.7   124      9.8   919.3    0.00     338    84.7
 122   17:10   85.0     7    3.6   142      7.6   919.2    0.00     314    84.7
 122   17:20   85.4     8    4.9   174     12.3   919.1    0.00     233    84.7
 122   17:30   84.3     8    4.3   174      8.8   919.1    0.00     224    84.7
 122   17:40   84.2     8    3.9   152      7.9   918.9    0.00     174    84.6
 122   17:50   83.5     8    4.2   152      8.8   918.8    0.00     149    84.5
 122   18:00   83.6     8    4.3   162      8.3   918.6    0.00      86    84.4
 122   18:10   83.1     8    2.1   169      7.7   918.5    0.00      52    84.2
 122   18:20   82.0     8    0.6   172      7.2   918.3    0.00      36    84.1
 122   18:30   81.9     8    0.2   162      3.7   918.2    0.00      17    84.0
 122   18:40   80.7     8    0.2   154      3.3   918.1    0.00       4    83.8
 122   18:50   80.0     8    0.0   150      0.1   918.0    0.00       1    83.6
 122   19:00   79.1     9    0.0   141      3.9   917.9    0.00       0    83.3
 122   19:10   78.0     9    0.0     0      0.0   917.9    0.00       0    83.1
 122   19:20   76.6     9    0.0     0      0.0   917.8    0.00       0    82.8
 122   19:30   76.2     9    0.0   146      0.1   917.8    0.00       0    82.6
 122   19:40   75.6    10    0.0     0      0.0   917.8    0.00       0    82.3
 122   19:50   74.2    10    0.8   115      3.9   917.9    0.00       0    82.1
 122   20:00   73.6    10    0.0     0      0.0   917.9    0.00       0    81.9
 122   20:10   73.6    10    0.0     0      0.0   917.9    0.00       0    81.7
 122   20:20   73.5    10    0.0     0      0.0   918.0    0.00       0    81.4
 122   20:30   73.3    10    0.0     0      0.0   918.0    0.00       0    81.2
 122   20:40   73.3    10    0.0     0      0.0   918.0    0.00       0    81.0
 122   20:50   73.5    10    0.0     0      0.0   918.0    0.00       0    80.8
 122   21:00   73.2    10    0.0     0      0.0   918.1    0.00       0    80.6
 122   21:10   72.8    10    0.0     0      0.0   918.2    0.00       0    80.4
 122   21:20   72.9    10    0.0     0      0.0   918.2    0.00       0    80.2
 122   21:30   71.3    11    0.0   254      0.1   918.4    0.00       0    80.0
 122   21:40   68.6    12    0.1   276      0.1   918.4    0.00       0    79.8
 122   21:50   67.4    12    0.0   296      0.1   918.2    0.00       0    79.7
 122   22:00   68.2    12    0.0     0      0.0   918.0    0.00       0    79.5
 122   22:10   68.1    12    0.0   324      0.1   917.8    0.00       0    79.4
 122   22:20   66.9    13    0.0   301      0.1   917.7    0.00       0    79.2
 122   22:30   65.9    14    0.0   298      0.1   917.6    0.00       0    79.0
 122   22:40   64.5    14    0.0   308      0.1   917.6    0.00       0    78.8
 122   22:50   63.5    14    0.6    15      2.3   917.5    0.00       0    78.6
 122   23:00   63.6    13    0.1   358      1.4   917.4    0.00       0    78.4
 122   23:10   63.9    13    0.6    33      2.2   917.4    0.00       0    78.2
 122   23:20   64.1    13    0.3    77      1.0   917.4    0.00       0    78.0
 122   23:30   63.8    13    0.0     0      0.0   917.3    0.00       0    77.8
 122   23:40   63.7    13    0.0     0      0.0   917.2    0.00       0    77.6
 122   23:50   62.8    13    0.0     0      0.0   917.1    0.00       0    77.5
 123    0:00   63.4    13    0.0     0      0.0   917.0    0.00       0    77.3
 123    0:10   63.9    12    0.0     0      0.0   916.9    0.00       0    77.1
 123    0:20   64.4    12    0.0     0      0.0   916.8    0.00       0    76.9
 123    0:30   64.5    12    0.0   263      0.1   916.9    0.00       0    76.8
 123    0:40   63.6    13    0.0   258      0.1   916.8    0.00       0    76.6
 123    0:50   63.2    13    0.0   200      0.1   916.8    0.00       0    76.4
 123    1:00   62.0    15    0.0   257      0.1   916.8    0.00       0    76.3
 123    1:10   60.9    15    0.0   242      0.1   916.7    0.00       0    76.1
 123    1:20   60.8    14    0.0   239      0.1   916.6    0.00       0    75.9
 123    1:30   61.3    14    0.0   206      0.1   916.5    0.00       0    75.8
 123    1:40   60.2    14    0.0   208      0.1   916.3    0.00       0    75.6
 123    1:50   58.6    18    0.6   278      3.7   916.4    0.00       0    75.5
 123    2:00   57.9    18    0.1   138      1.9   916.3    0.00       0    75.3
 123    2:10   58.7    15    2.5   107      3.7   916.2    0.00       0    75.2
 123    2:20   59.9    14    1.8    65      3.1   916.2    0.00       0    75.0
 123    2:30   61.3    13    1.8    60      3.4   916.2    0.00       0    74.9
 123    2:40   61.8    13    1.0    66      3.1   916.1    0.00       0    74.7
 123    2:50   61.8    13    1.6   321      3.1   916.1    0.00       0    74.6
 123    3:00   59.5    16    1.4   230      3.3   916.2    0.00       0    74.4
 123    3:10   58.0    17    1.0   234      3.1   916.1    0.00       0    74.3
 123    3:20   57.3    18    0.1   222      1.5   916.0    0.00       0    74.2
 123    3:30   57.9    17    0.0   201      0.1   915.9    0.00       0    74.0
 123    3:40   58.7    16    0.0     0      0.0   915.8    0.00       0    73.9
 123    3:50   58.6    16    0.0     0      0.0   915.8    0.00       0    73.8
 123    4:00   57.7    16    0.0     0      0.0   915.8    0.00       0    73.7
 123    4:10   57.7    16    0.0     0      0.0   915.7    0.00       0    73.5
 123    4:20   57.6    16    0.0     0      0.0   915.7    0.00       0    73.4
 123    4:30   57.1    16    0.0     0      0.0   915.8    0.00       0    73.3
 123    4:40   58.0    15    0.0     0      0.0   915.8    0.00       0    73.1
 123    4:50   59.0    14    0.0     0      0.0   915.8    0.00       2    73.0
 123    5:00   58.5    14    0.0     0      0.0   916.0    0.00       6    72.9
 123    5:10   58.1    15    0.0     0      0.0   916.2    0.00      12    72.8
 123    5:20   58.0    15    0.0   334      0.1   916.3    0.00      18    72.6
 123    5:30   57.3    16    0.9   360      2.8   916.4    0.00      60    72.5
 123    5:40   58.4    15    0.0     0      0.0   916.4    0.00      71    72.4
 123    5:50   60.3    15    0.0   258      0.1   916.4    0.00     114    72.3
 123    6:00   61.7    17    0.3    57      1.6   916.5    0.00     142    72.2
 123    6:10   60.8    18    0.1   296      0.1   916.7    0.00     172    72.2
 123    6:20   59.9    19    0.1   294      0.1   916.8    0.00     203    72.1
 123    6:30   61.6    18    0.1   293      0.1   917.0    0.00     236    72.0
 123    6:40   63.9    15    0.5   326      3.0   917.2    0.00     268    72.0
 123    6:50   65.6    14    0.1   318      0.1   917.2    0.00     301    71.9
 123    7:00   66.4    14    0.4   326      2.3   917.5    0.00     330    71.9
 123    7:10   67.3    13    0.1   342      0.1   917.7    0.00     365    71.8
 123    7:20   69.0    13    0.1   344      0.1   917.9    0.00     399    71.8
 123    7:30   69.4    13    1.1   353      3.3   918.1    0.00     432    71.8
 123    7:40   69.7    13    1.8   347      3.4   918.2    0.00     465    71.8
 123    7:50   72.0    12    0.9   336      2.0   918.2    0.00     506    71.9
 123    8:00   73.0    12    0.5   334      1.5   918.3    0.00     531    71.9
 123    8:10   74.4    12    0.5   282      2.0   918.4    0.00     562    71.9
 123    8:20   75.4    12    1.1   196      4.3   918.5    0.00     593    71.9
 123    8:30   76.0    12    2.9   181      6.2   918.5    0.00     621    72.1
 123    8:40   76.2    12    2.3   205      6.6   918.5    0.00     650    72.2
 123    8:50   77.9    12    0.0   195      0.1   918.6    0.00     678    72.6
 123    9:00   79.2    11    0.0   193      0.1   918.6    0.00     710    73.0
 123    9:10   79.9    12    0.1   240      0.1   918.7    0.00     768    73.4
 123    9:20   80.4    12    0.0   237      0.1   918.8    0.00     728    73.8
 123    9:30   81.2    12    0.0   239      0.1   918.8    0.00     762    74.2
 123    9:40   81.5    12    0.0   207      0.1   918.7    0.00     669    74.6
 123    9:50   81.5    12    0.0   223      0.1   918.6    0.00     754    74.9
 123   10:00   81.8    12    0.0   237      0.1   918.6    0.00     850    75.4
 123   10:10   84.4    12    0.0   200      0.1   918.6    0.00     941    75.9
 123   10:20   84.2    12    0.0   191      0.1   918.6    0.00     936    76.4
 123   10:30   84.8    12    0.0   219      0.1   918.5    0.00     981    76.9
 123   10:40   85.1    12    1.3   143     18.3   918.4    0.00     973    77.4
 123   10:50   85.8    12    8.7   183     16.7   918.3    0.00    1003    78.0
 123   11:00   84.7    12   10.3   181     20.3   918.2    0.00     578    78.6
 123   11:10   85.2    11   10.0   172     19.7   918.0    0.00     701    79.1
 123   11:20   84.7    11   10.7   178     20.0   917.8    0.00     974    79.6
 123   11:30   85.3    11    8.8   186     19.4   917.6    0.00     911    79.9
 123   11:40   86.4    11   11.2   178     20.7   917.6    0.00     999    80.3
 123   11:50   86.0    11    6.8   186     15.1   917.5    0.00     933    80.6
 123   12:00   86.9    11    8.2   168     20.0   917.3    0.00     947    80.9
 123   12:10   87.5    11    5.6   204     21.3   917.2    0.00     982    81.2
 123   12:20   88.5    11    7.3   176     14.1   917.2    0.00     911    81.6
 123   12:30   86.0    12    7.1   170     17.6   917.1    0.00     432    81.9
 123   12:40   85.3    12    9.8   140     18.3   916.8    0.00     547    82.2
 123   12:50   83.5    12    6.6   152     13.8   916.5    0.00     333    82.5
 123   13:00   84.2    12    4.4   179     10.9   916.2    0.00     271    82.7
 123   13:10   84.9    12    6.1   154     13.2   915.9    0.00     832    82.8
 123   13:20   87.1    11    8.7   189     22.6   915.7    0.00     993    82.8
 123   13:30   87.1    11    8.2   192     20.4   915.8    0.00     906    82.8
 123   13:40   87.2    11    8.2   198     19.5   915.8    0.00     901    83.0
 123   13:50   86.2    11    9.4   180     18.7   915.7    0.00     659    83.1
 123   14:00   86.9    11    7.3   209     19.6   915.6    0.00     755    83.2
 123   14:10   85.3    12    7.2   190     17.5   915.5    0.00     621    83.3
 123   14:20   87.6    11    5.5   209     14.8   915.2    0.00     865    83.3
 123   14:30   87.5    11    4.9   224     11.4   915.1    0.00     793    83.3
 123   14:40   86.8    11    6.8   216     14.2   915.1    0.00     684    83.2

Return to Pahrump, Nevada graphs page.


Western Regional Climate Center,wrcc@dri.edu